createdAt,value
2019-02-16T00:01:09.709Z,6.20
2019-02-16T00:03:39.292Z,6.10
2019-02-16T00:06:08.781Z,7.30
2019-02-16T00:08:37.966Z,6.00
2019-02-16T00:11:07.239Z,6.00
2019-02-16T00:13:36.554Z,6.10
2019-02-16T00:16:05.829Z,6.00
2019-02-16T00:18:35.168Z,5.90
2019-02-16T00:21:04.966Z,5.80
2019-02-16T00:23:34.765Z,5.70
2019-02-16T00:26:04.143Z,5.70
2019-02-16T00:28:33.385Z,5.70
2019-02-16T00:31:02.856Z,5.60
2019-02-16T00:33:32.457Z,5.60
2019-02-16T00:36:01.981Z,5.70
2019-02-16T00:38:31.160Z,5.60
2019-02-16T00:41:00.350Z,5.60
2019-02-16T00:43:29.831Z,5.70
2019-02-16T00:45:59.227Z,5.80
2019-02-16T00:48:28.477Z,5.80
2019-02-16T00:50:58.643Z,5.70
2019-02-16T00:53:27.985Z,5.70
2019-02-16T00:55:57.558Z,5.80
2019-02-16T00:58:26.990Z,5.80
2019-02-16T01:00:56.521Z,6.40
2019-02-16T01:03:25.854Z,5.90
2019-02-16T01:05:55.217Z,5.90
2019-02-16T01:08:24.663Z,5.80
2019-02-16T01:10:53.888Z,5.90
2019-02-16T01:13:23.053Z,5.90
2019-02-16T01:15:52.514Z,6.00
2019-02-16T01:18:21.673Z,6.10
2019-02-16T01:20:50.974Z,6.00
2019-02-16T01:23:20.127Z,6.10
2019-02-16T01:25:49.322Z,6.10
2019-02-16T01:28:18.666Z,6.10
2019-02-16T01:30:48.203Z,6.00
2019-02-16T01:33:18.698Z,6.00
2019-02-16T01:35:48.135Z,5.90
2019-02-16T01:38:17.619Z,6.00
2019-02-16T01:40:46.818Z,5.90
2019-02-16T01:43:16.416Z,5.90
2019-02-16T01:45:45.582Z,5.80
2019-02-16T01:48:14.799Z,5.80
2019-02-16T01:50:43.960Z,5.70
2019-02-16T01:53:13.156Z,5.60
2019-02-16T01:55:42.349Z,5.50
2019-02-16T01:58:11.591Z,5.50
2019-02-16T02:00:40.981Z,5.30
2019-02-16T02:03:10.219Z,5.30
2019-02-16T02:05:39.412Z,5.40
2019-02-16T02:08:08.921Z,5.30
2019-02-16T02:10:38.373Z,5.20
2019-02-16T02:13:08.225Z,5.10
2019-02-16T02:15:37.457Z,5.20
2019-02-16T02:18:06.930Z,5.10
2019-02-16T02:20:36.438Z,5.00
2019-02-16T02:23:05.693Z,5.00
2019-02-16T02:25:35.220Z,5.00
2019-02-16T02:28:04.665Z,5.00
2019-02-16T02:30:34.110Z,4.90
2019-02-16T02:33:03.420Z,4.80
2019-02-16T02:35:32.578Z,4.80
2019-02-16T02:38:01.826Z,4.80
2019-02-16T02:40:31.147Z,4.70
2019-02-16T02:43:00.399Z,4.60
2019-02-16T02:45:29.601Z,4.50
2019-02-16T02:47:59.054Z,4.50
2019-02-16T02:50:28.313Z,4.40
2019-02-16T02:52:57.490Z,4.30
2019-02-16T02:55:26.838Z,4.20
2019-02-16T02:57:56.108Z,4.20
2019-02-16T03:00:25.317Z,4.30
2019-02-16T03:02:54.848Z,4.30
2019-02-16T03:05:24.113Z,4.20
2019-02-16T03:07:53.281Z,4.20
2019-02-16T03:10:22.511Z,4.20
2019-02-16T03:12:51.691Z,4.00
2019-02-16T03:15:21.030Z,3.90
2019-02-16T03:17:50.288Z,4.00
2019-02-16T03:20:19.854Z,4.10
2019-02-16T03:23:11.631Z,4.10
2019-02-16T03:25:41.314Z,4.10
2019-02-16T03:28:36.194Z,3.90
2019-02-16T03:32:01.223Z,3.90
2019-02-16T03:34:54.185Z,3.90
2019-02-16T03:38:05.562Z,3.90
2019-02-16T03:40:34.809Z,4.00
2019-02-16T03:43:04.210Z,4.10
2019-02-16T03:45:33.407Z,4.10
2019-02-16T03:48:02.849Z,4.10
2019-02-16T03:50:32.353Z,4.00
2019-02-16T03:53:01.944Z,4.20
2019-02-16T03:55:31.426Z,4.20
2019-02-16T03:58:00.625Z,4.30
2019-02-16T04:00:29.884Z,4.10
2019-02-16T04:02:59.222Z,4.00
2019-02-16T04:05:28.424Z,3.90
2019-02-16T04:07:57.625Z,3.90
2019-02-16T04:10:26.819Z,3.90
2019-02-16T04:12:56.388Z,4.00
2019-02-16T04:15:25.585Z,4.00
2019-02-16T04:17:55.147Z,4.10
2019-02-16T04:20:24.306Z,4.10
2019-02-16T04:22:53.786Z,4.10
2019-02-16T04:25:22.981Z,4.10
2019-02-16T04:27:52.450Z,4.10
2019-02-16T04:30:21.693Z,4.00
2019-02-16T04:32:50.953Z,3.90
2019-02-16T04:35:20.221Z,3.90
2019-02-16T04:37:49.418Z,4.10
2019-02-16T04:40:18.892Z,4.20
2019-02-16T04:42:48.142Z,4.10
2019-02-16T04:45:17.435Z,4.10
2019-02-16T04:47:46.902Z,4.10
2019-02-16T04:50:16.169Z,3.90
2019-02-16T04:52:45.427Z,4.00
2019-02-16T04:55:14.648Z,4.10
2019-02-16T04:57:43.903Z,4.10
2019-02-16T05:00:13.127Z,4.20
2019-02-16T05:02:42.387Z,4.10
2019-02-16T05:05:11.615Z,4.10
2019-02-16T05:07:40.851Z,4.00
2019-02-16T05:10:10.233Z,3.90
2019-02-16T05:12:39.414Z,3.80
2019-02-16T05:15:09.050Z,3.80
2019-02-16T05:17:38.230Z,4.00
2019-02-16T05:20:07.523Z,3.80
2019-02-16T05:22:44.367Z,3.80
2019-02-16T05:25:07.918Z,3.80
2019-02-16T05:27:37.180Z,3.60
2019-02-16T05:30:07.010Z,3.50
2019-02-16T05:32:36.230Z,3.50
2019-02-16T05:35:05.423Z,3.50
2019-02-16T05:37:34.799Z,3.50
2019-02-16T05:40:04.158Z,3.40
2019-02-16T05:42:33.401Z,3.30
2019-02-16T05:45:02.672Z,3.70
2019-02-16T05:47:32.021Z,3.60
2019-02-16T05:50:01.200Z,3.60
2019-02-16T05:52:30.381Z,3.50
2019-02-16T05:54:59.624Z,3.40
2019-02-16T05:57:28.892Z,3.40
2019-02-16T05:59:58.209Z,3.40
2019-02-16T06:02:27.898Z,3.30
2019-02-16T06:04:57.088Z,3.20
2019-02-16T06:07:26.320Z,3.20
2019-02-16T06:09:55.493Z,3.20
2019-02-16T06:12:24.745Z,3.10
2019-02-16T06:14:54.007Z,3.00
2019-02-16T06:17:23.277Z,3.10
2019-02-16T06:19:52.466Z,3.10
2019-02-16T06:22:21.689Z,3.10
2019-02-16T06:24:50.862Z,3.20
2019-02-16T06:27:20.149Z,3.10
2019-02-16T06:29:49.344Z,3.00
2019-02-16T06:32:19.656Z,2.90
2019-02-16T06:34:51.281Z,3.00
2019-02-16T06:37:24.420Z,2.90
2019-02-16T06:39:54.026Z,3.10
2019-02-16T06:42:23.364Z,3.20
2019-02-16T06:44:52.993Z,3.20
2019-02-16T06:47:22.256Z,3.10
2019-02-16T06:49:51.511Z,3.10
2019-02-16T06:52:21.283Z,3.10
2019-02-16T06:54:50.485Z,3.20
2019-02-16T06:57:25.407Z,3.30
2019-02-16T06:59:54.672Z,3.20
2019-02-16T07:02:24.967Z,3.20
2019-02-16T07:04:54.274Z,3.30
2019-02-16T07:07:23.524Z,3.30
2019-02-16T07:09:52.897Z,3.30
2019-02-16T07:12:22.162Z,3.40
2019-02-16T07:14:51.419Z,3.40
2019-02-16T07:17:41.567Z,3.50
2019-02-16T07:20:10.966Z,3.50
2019-02-16T07:22:40.238Z,3.60
2019-02-16T07:25:09.459Z,3.60
2019-02-16T07:27:38.917Z,3.60
2019-02-16T07:30:09.852Z,3.70
2019-02-16T07:32:39.421Z,3.80
2019-02-16T07:35:08.940Z,3.90
2019-02-16T07:37:38.321Z,4.00
2019-02-16T07:40:08.210Z,4.00
2019-02-16T07:42:54.432Z,4.10
2019-02-16T07:45:50.976Z,4.30
2019-02-16T07:48:26.994Z,4.40
2019-02-16T07:51:18.545Z,4.40
2019-02-16T07:53:55.326Z,4.40
2019-02-16T07:56:38.582Z,4.50
2019-02-16T07:59:17.926Z,4.60
2019-02-16T08:02:09.236Z,4.70
2019-02-16T08:04:44.242Z,4.90
2019-02-16T08:07:32.597Z,5.00
2019-02-16T08:10:19.863Z,5.10
2019-02-16T08:13:08.575Z,5.20
2019-02-16T08:16:11.711Z,5.30
2019-02-16T08:19:06.103Z,5.40
2019-02-16T08:21:45.303Z,5.60
2019-02-16T08:24:32.741Z,5.80
2019-02-16T08:27:13.193Z,5.90
2019-02-16T08:30:07.387Z,6.00
2019-02-16T08:32:57.914Z,6.10
2019-02-16T08:35:36.500Z,6.10
2019-02-16T08:38:12.253Z,6.30
2019-02-16T08:41:03.389Z,6.40
2019-02-16T08:43:57.705Z,6.40
2019-02-16T08:47:04.344Z,6.50
2019-02-16T08:49:43.950Z,6.60
2019-02-16T08:52:30.770Z,6.80
2019-02-16T08:55:08.110Z,6.90
2019-02-16T08:57:49.669Z,7.00
2019-02-16T09:00:41.225Z,7.10
2019-02-16T09:03:38.976Z,7.20
2019-02-16T09:06:27.594Z,7.30
2019-02-16T09:09:33.109Z,7.40
2019-02-16T09:12:21.198Z,7.50
2019-02-16T09:15:06.507Z,7.70
2019-02-16T09:18:07.092Z,7.70
2019-02-16T09:20:59.235Z,7.90
2019-02-16T09:23:37.278Z,7.90
2019-02-16T09:26:20.214Z,8.10
2019-02-16T09:29:03.661Z,8.10
2019-02-16T09:31:52.376Z,8.20
2019-02-16T09:34:43.710Z,8.30
2019-02-16T09:37:29.208Z,8.30
2019-02-16T09:40:17.637Z,8.30
2019-02-16T09:43:01.657Z,8.50
2019-02-16T09:45:53.266Z,8.60
2019-02-16T09:48:47.983Z,8.60
2019-02-16T09:51:33.432Z,8.70
2019-02-16T09:54:14.457Z,8.90
2019-02-16T09:56:55.203Z,9.10
2019-02-16T09:59:49.791Z,9.00
2019-02-16T10:02:41.052Z,9.00
2019-02-16T10:05:24.051Z,9.10
2019-02-16T10:08:18.476Z,9.30
2019-02-16T10:11:10.783Z,9.40
2019-02-16T10:14:04.940Z,9.60
2019-02-16T10:17:02.731Z,9.70
2019-02-16T10:19:59.965Z,9.60
2019-02-16T10:23:06.627Z,9.70
2019-02-16T10:26:00.821Z,9.70
2019-02-16T10:28:47.184Z,9.90
2019-02-16T10:31:40.685Z,9.90
2019-02-16T10:34:24.326Z,10.00
2019-02-16T10:37:06.271Z,10.10
2019-02-16T10:40:03.888Z,10.10
2019-02-16T10:42:43.092Z,10.30
2019-02-16T10:45:49.956Z,10.30
2019-02-16T10:48:36.653Z,10.30
2019-02-16T10:51:16.386Z,10.30
2019-02-16T10:54:13.587Z,10.20
2019-02-16T10:57:02.173Z,10.40
2019-02-16T10:59:40.414Z,10.40
2019-02-16T11:02:32.079Z,10.80
2019-02-16T11:05:19.648Z,10.70
2019-02-16T11:07:55.725Z,10.80
2019-02-16T11:10:47.415Z,10.80
2019-02-16T11:13:38.833Z,10.80
2019-02-16T11:16:33.314Z,11.00
2019-02-16T11:19:16.151Z,11.30
2019-02-16T11:22:22.950Z,11.20
2019-02-16T11:25:18.469Z,11.50
2019-02-16T11:28:08.943Z,11.70
2019-02-16T11:30:55.991Z,11.70
2019-02-16T11:33:43.003Z,11.80
2019-02-16T11:36:21.223Z,12.00
2019-02-16T11:39:01.417Z,12.00
2019-02-16T11:41:58.441Z,12.10
2019-02-16T11:44:52.783Z,12.10
2019-02-16T11:47:41.105Z,12.20
2019-02-16T11:50:26.454Z,12.20
2019-02-16T11:53:13.169Z,12.30
2019-02-16T11:56:16.648Z,12.40
2019-02-16T11:58:59.809Z,12.60
2019-02-16T12:01:53.070Z,12.80
2019-02-16T12:04:36.876Z,12.70
2019-02-16T12:07:37.078Z,12.70
2019-02-16T12:10:35.291Z,12.90
2019-02-16T12:13:29.459Z,13.00
2019-02-16T12:16:19.631Z,13.00
2019-02-16T12:19:14.020Z,12.90
2019-02-16T12:22:20.736Z,12.70
2019-02-16T12:25:10.172Z,13.10
2019-02-16T12:27:58.486Z,13.10
2019-02-16T12:30:50.295Z,13.50
2019-02-16T12:33:35.322Z,13.50
2019-02-16T12:36:12.766Z,13.40
2019-02-16T12:38:48.094Z,13.50
2019-02-16T12:41:48.298Z,13.60
2019-02-16T12:44:43.100Z,13.70
2019-02-16T12:47:41.886Z,13.50
2019-02-16T12:50:32.982Z,13.40
2019-02-16T12:53:39.462Z,13.60
2019-02-16T12:56:26.415Z,13.80
2019-02-16T12:59:17.322Z,14.30
2019-02-16T13:02:03.935Z,14.20
2019-02-16T13:04:52.371Z,14.20
2019-02-16T13:07:42.798Z,14.20
2019-02-16T13:10:34.130Z,14.30
2019-02-16T13:13:22.847Z,14.30
2019-02-16T13:16:09.732Z,14.80
2019-02-16T13:19:03.888Z,16.50
2019-02-16T13:21:37.536Z,17.60
2019-02-16T13:24:19.057Z,18.10
2019-02-16T13:27:07.550Z,18.30
2019-02-16T13:29:46.226Z,18.70
2019-02-16T13:32:36.970Z,18.50
2019-02-16T13:35:22.831Z,19.10
2019-02-16T13:38:11.175Z,18.90
2019-02-16T13:40:53.686Z,18.50
2019-02-16T13:43:35.894Z,18.80
2019-02-16T13:46:28.889Z,18.70
2019-02-16T13:49:32.489Z,19.60
2019-02-16T13:52:26.816Z,19.70
2019-02-16T13:55:17.859Z,19.50
2019-02-16T13:57:57.188Z,20.00
2019-02-16T14:00:35.041Z,19.90
2019-02-16T14:03:10.748Z,20.10
2019-02-16T14:05:58.433Z,20.10
2019-02-16T14:08:45.165Z,20.70
2019-02-16T14:11:33.999Z,20.50
2019-02-16T14:14:15.011Z,20.30
2019-02-16T14:16:55.536Z,20.70
2019-02-16T14:19:24.900Z,20.90
2019-02-16T14:21:54.163Z,20.90
2019-02-16T14:24:41.267Z,20.90
2019-02-16T14:27:10.555Z,20.50
2019-02-16T14:29:39.862Z,20.90
2019-02-16T14:32:09.413Z,21.40
2019-02-16T14:34:38.727Z,22.40
2019-02-16T14:37:19.694Z,22.50
2019-02-16T14:39:49.561Z,22.60
2019-02-16T14:42:18.845Z,22.50
2019-02-16T14:44:49.408Z,22.50
2019-02-16T14:47:19.099Z,22.20
2019-02-16T14:49:48.354Z,22.50
2019-02-16T14:52:17.652Z,22.40
2019-02-16T14:54:47.683Z,21.80
2019-02-16T14:57:17.068Z,22.10
2019-02-16T14:59:46.399Z,22.20
2019-02-16T15:02:15.876Z,21.60
2019-02-16T15:04:45.305Z,24.10
2019-02-16T15:07:15.458Z,23.50
2019-02-16T15:09:44.933Z,23.40
2019-02-16T15:12:14.595Z,23.70
2019-02-16T15:14:44.169Z,23.20
2019-02-16T15:17:14.394Z,23.50
2019-02-16T15:19:43.656Z,24.00
2019-02-16T15:22:13.707Z,23.40
2019-02-16T15:24:43.251Z,23.10
2019-02-16T15:27:13.054Z,23.30
2019-02-16T15:29:42.955Z,22.90
2019-02-16T15:32:14.854Z,22.80
2019-02-16T15:34:44.150Z,23.20
2019-02-16T15:37:13.390Z,22.70
2019-02-16T15:39:42.754Z,22.10
2019-02-16T15:42:12.354Z,22.30
2019-02-16T15:44:42.664Z,22.90
2019-02-16T15:47:11.921Z,22.80
2019-02-16T15:49:42.612Z,22.10
2019-02-16T15:52:12.058Z,21.90
2019-02-16T15:54:42.261Z,22.20
2019-02-16T15:57:11.616Z,22.70
2019-02-16T15:59:41.404Z,22.40
2019-02-16T16:02:10.640Z,22.00
2019-02-16T16:04:40.101Z,23.10
2019-02-16T16:07:14.772Z,22.80
2019-02-16T16:10:06.313Z,22.40
2019-02-16T16:12:51.699Z,22.90
2019-02-16T16:15:44.653Z,22.60
2019-02-16T16:18:34.723Z,22.70
2019-02-16T16:21:24.593Z,22.00
2019-02-16T16:24:06.701Z,21.80
2019-02-16T16:27:01.284Z,19.50
2019-02-16T16:29:49.299Z,17.30
2019-02-16T16:32:43.742Z,16.00
2019-02-16T16:35:28.394Z,15.50
2019-02-16T16:38:06.350Z,15.20
2019-02-16T16:40:47.134Z,15.00
2019-02-16T16:43:39.734Z,14.80
2019-02-16T16:46:46.313Z,14.60
2019-02-16T16:49:24.613Z,14.40
2019-02-16T16:52:18.681Z,14.20
2019-02-16T16:55:05.415Z,14.10
2019-02-16T16:57:41.468Z,13.90
2019-02-16T17:00:33.823Z,13.80
2019-02-16T17:03:40.644Z,13.70
2019-02-16T17:06:25.505Z,13.60
2019-02-16T17:09:16.757Z,13.60
2019-02-16T17:12:09.323Z,13.50
2019-02-16T17:14:55.452Z,13.30
2019-02-16T17:17:46.776Z,13.20
2019-02-16T17:20:42.172Z,13.20
2019-02-16T17:23:17.199Z,13.10
2019-02-16T17:26:08.662Z,13.00
2019-02-16T17:28:56.901Z,12.90
2019-02-16T17:31:43.650Z,12.70
2019-02-16T17:34:37.786Z,12.50
2019-02-16T17:37:24.968Z,12.40
2019-02-16T17:40:19.732Z,12.30
2019-02-16T17:43:12.740Z,12.20
2019-02-16T17:45:59.833Z,12.20
2019-02-16T17:48:46.443Z,12.10
2019-02-16T17:51:33.391Z,11.90
2019-02-16T17:54:11.129Z,11.80
2019-02-16T17:56:51.889Z,11.80
2019-02-16T17:59:26.228Z,11.70
2019-02-16T18:02:12.829Z,11.70
2019-02-16T18:05:19.303Z,11.70
2019-02-16T18:08:00.042Z,11.70
2019-02-16T18:10:42.058Z,11.70
2019-02-16T18:13:33.125Z,11.50
2019-02-16T18:16:21.622Z,11.50
2019-02-16T18:19:12.910Z,11.50
2019-02-16T18:22:01.330Z,11.60
2019-02-16T18:24:39.136Z,11.60
2019-02-16T18:27:27.367Z,11.60
2019-02-16T18:30:18.678Z,11.70
2019-02-16T18:33:05.696Z,11.60
2019-02-16T18:35:52.853Z,11.60
2019-02-16T18:38:41.225Z,11.60
2019-02-16T18:41:28.305Z,11.50
2019-02-16T18:44:15.110Z,11.20
2019-02-16T18:46:52.247Z,11.20
2019-02-16T18:49:43.798Z,10.90
2019-02-16T18:52:23.570Z,10.80
2019-02-16T18:55:17.943Z,10.80
2019-02-16T18:58:00.846Z,10.70
2019-02-16T19:00:47.494Z,10.50
2019-02-16T19:03:33.339Z,10.40
2019-02-16T19:06:19.956Z,10.40
2019-02-16T19:09:06.221Z,10.40
2019-02-16T19:11:55.764Z,10.20
2019-02-16T19:14:53.171Z,10.10
2019-02-16T19:17:40.583Z,10.20
2019-02-16T19:20:38.059Z,10.30
2019-02-16T19:23:32.898Z,10.30
2019-02-16T19:26:24.645Z,10.10
2019-02-16T19:29:01.173Z,10.20
2019-02-16T19:32:04.849Z,10.10
2019-02-16T19:34:52.543Z,10.00
2019-02-16T19:37:40.393Z,9.80
2019-02-16T19:40:30.787Z,9.70
2019-02-16T19:43:11.622Z,9.60
2019-02-16T19:46:07.025Z,9.60
2019-02-16T19:48:53.964Z,9.60
2019-02-16T19:51:40.746Z,9.50
2019-02-16T19:54:44.352Z,9.50
2019-02-16T19:57:27.013Z,9.50
2019-02-16T20:00:09.476Z,9.50
2019-02-16T20:02:50.443Z,9.40
2019-02-16T20:05:38.530Z,9.40
2019-02-16T20:08:36.173Z,9.40
2019-02-16T20:11:22.956Z,9.50
2019-02-16T20:14:14.348Z,9.80
2019-02-16T20:17:00.788Z,9.90
2019-02-16T20:19:55.388Z,9.90
2019-02-16T20:22:33.160Z,10.50
2019-02-16T20:25:17.140Z,9.50
2019-02-16T20:28:03.124Z,9.50
2019-02-16T20:30:54.795Z,9.60
2019-02-16T20:33:46.654Z,9.40
2019-02-16T20:36:31.408Z,9.20
2019-02-16T20:39:39.197Z,9.20
2019-02-16T20:42:22.012Z,9.30
2019-02-16T20:45:23.010Z,9.20
2019-02-16T20:48:14.318Z,9.20
2019-02-16T20:51:03.394Z,9.20
2019-02-16T20:54:01.545Z,9.20
2019-02-16T20:56:55.491Z,9.10
2019-02-16T20:59:47.131Z,9.10
2019-02-16T21:02:29.419Z,9.00
2019-02-16T21:05:14.756Z,9.00
2019-02-16T21:08:01.607Z,9.00
2019-02-16T21:10:40.709Z,8.90
2019-02-16T21:13:22.302Z,8.90
2019-02-16T21:16:01.014Z,8.80
2019-02-16T21:19:01.158Z,8.60
2019-02-16T21:21:50.788Z,8.60
2019-02-16T21:24:26.209Z,8.70
2019-02-16T21:27:10.469Z,8.80
2019-02-16T21:29:55.781Z,8.60
2019-02-16T21:32:44.400Z,8.60
2019-02-16T21:35:32.052Z,8.50
2019-02-16T21:38:17.396Z,8.50
2019-02-16T21:41:08.626Z,8.30
2019-02-16T21:43:50.670Z,8.20
2019-02-16T21:46:37.834Z,8.30
2019-02-16T21:49:33.835Z,8.30
2019-02-16T21:52:19.221Z,8.30
2019-02-16T21:55:10.550Z,8.30
2019-02-16T21:57:57.204Z,8.30
2019-02-16T22:00:53.896Z,8.10
2019-02-16T22:03:46.542Z,8.10
2019-02-16T22:06:34.791Z,7.80
2019-02-16T22:09:15.634Z,7.70
2019-02-16T22:12:17.137Z,7.60
2019-02-16T22:14:49.111Z,7.60
2019-02-16T22:17:19.931Z,7.60
2019-02-16T22:19:50.683Z,7.60
2019-02-16T22:22:21.322Z,7.60
2019-02-16T22:24:51.810Z,7.80
2019-02-16T22:27:21.085Z,7.80
2019-02-16T22:29:50.264Z,7.50
2019-02-16T22:32:20.000Z,7.50
2019-02-16T22:34:49.589Z,7.50
2019-02-16T22:37:18.838Z,7.30
2019-02-16T22:39:48.945Z,7.30
2019-02-16T22:42:18.879Z,7.30
2019-02-16T22:44:48.958Z,7.40
2019-02-16T22:47:20.214Z,7.60
2019-02-16T22:49:49.376Z,7.40
2019-02-16T22:52:18.873Z,7.10
2019-02-16T22:54:48.276Z,7.00
2019-02-16T22:57:17.813Z,6.90
2019-02-16T22:59:47.314Z,6.80
2019-02-16T23:02:17.755Z,6.50
2019-02-16T23:04:47.334Z,6.60
2019-02-16T23:07:16.944Z,6.80
2019-02-16T23:09:46.341Z,6.80
2019-02-16T23:12:16.100Z,6.90
2019-02-16T23:14:45.311Z,6.90
2019-02-16T23:17:14.973Z,6.60
2019-02-16T23:19:44.382Z,6.80
2019-02-16T23:22:14.003Z,6.80
2019-02-16T23:24:43.530Z,6.80
2019-02-16T23:27:13.517Z,6.70
2019-02-16T23:29:42.868Z,6.90
2019-02-16T23:32:12.314Z,6.80
2019-02-16T23:34:41.488Z,6.80
2019-02-16T23:37:10.774Z,6.80
2019-02-16T23:39:40.045Z,6.60
2019-02-16T23:42:09.264Z,6.60
2019-02-16T23:44:39.042Z,6.50
2019-02-16T23:47:08.294Z,6.50
2019-02-16T23:49:37.525Z,6.60
2019-02-16T23:52:06.899Z,6.50
2019-02-16T23:54:36.247Z,6.50
2019-02-16T23:57:05.750Z,6.50
2019-02-16T23:59:35.005Z,6.50
